»·PEaware :: N791JR KCMA-L52

N791JR :: KCMA-L52

FLIGHT INFORMATION

Flight Status: Arrived
Operator: Privately registered:
United States
More flights under this callsign
Pilot: Skye D. (10623)
Aircraft: CESSNA 172 SKYHAWK
(C172)
More flights by this aircraft type
Origin: KCMA Camarillo
United States
Destination: L52 Oceano Co
United States
More flights between these airports :: More routes between these airports
Route: RZS V12 GVO V27 FABEG
File this flight plan on PilotEdge
Remarks:
Altitude:
(Current/Filed)
6,000ft
Speed:
(Current/Filed)
110kts
Departed: 18-Nov-17 03:22 PM
Arrived: 18-Nov-17 04:24 PM
Distance/Time
Traveled:
92nm/1:02
Distance/Time
To Go:
Arrived

Flight Plot

Page will automatically refresh every two minutes.

Flight plan parsing failed; only flown route is shown


Map Options




Map Legend


Flown Route
Filed Route
Departure Airport
Arrival Airport
Navaid (VOR, NDB)
Fix

Horizontal Profiles

Position Reports

Time Latitude Longitude Heading Altitude Ground
Speed
18-Nov-17 14:52 34.210469 -119.080792 90 80ft 0kts
18-Nov-17 14:53 34.210469 -119.080792 90 80ft 0kts
18-Nov-17 14:54 34.210469 -119.080792 90 80ft 0kts
18-Nov-17 14:55 34.210469 -119.080792 90 80ft 0kts
18-Nov-17 14:56 34.210469 -119.080792 90 80ft 0kts
18-Nov-17 14:59 34.210258 -119.077953 88 80ft 0kts
18-Nov-17 15:00 34.210258 -119.077953 88 80ft 0kts
18-Nov-17 15:01 34.210258 -119.077953 88 80ft 0kts
18-Nov-17 15:02 34.210258 -119.077953 88 80ft 0kts
18-Nov-17 15:03 34.210258 -119.077953 88 80ft 0kts
18-Nov-17 15:04 34.210258 -119.077953 88 80ft 0kts
18-Nov-17 15:05 34.210258 -119.077953 88 80ft 0kts
18-Nov-17 15:06 34.210258 -119.077953 88 80ft 0kts
18-Nov-17 15:07 34.210258 -119.077953 88 80ft 0kts
18-Nov-17 15:08 34.210258 -119.077953 88 80ft 0kts
18-Nov-17 15:09 34.210258 -119.077953 88 80ft 0kts
18-Nov-17 15:10 34.210258 -119.077953 88 80ft 0kts
18-Nov-17 15:11 34.210258 -119.077953 88 80ft 0kts
18-Nov-17 15:12 34.210258 -119.077953 88 80ft 0kts
18-Nov-17 15:13 34.210258 -119.077953 88 80ft 0kts
18-Nov-17 15:14 34.210258 -119.077953 88 80ft 0kts
18-Nov-17 15:15 34.210258 -119.077953 88 80ft 0kts
18-Nov-17 15:16 34.210291 -119.077832 24 80ft 2kts
18-Nov-17 15:17 34.210778 -119.077887 359 80ft 0kts
18-Nov-17 15:18 34.210778 -119.077887 359 80ft 0kts
18-Nov-17 15:19 34.210778 -119.077887 359 80ft 0kts
18-Nov-17 15:20 34.210778 -119.077887 359 80ft 0kts
18-Nov-17 15:21 34.210967 -119.081185 270 80ft 18kts
18-Nov-17 15:22 34.211738 -119.084182 24 80ft 5kts
18-Nov-17 15:23 34.211801 -119.084180 334 80ft 0kts
18-Nov-17 15:24 34.212512 -119.084488 358 80ft 8kts
18-Nov-17 15:25 34.213084 -119.084497 359 80ft 0kts
18-Nov-17 15:26 34.213775 -119.085167 267 80ft 17kts
18-Nov-17 15:27 34.215050 -119.104955 286 723ft 72kts
18-Nov-17 15:28 34.220880 -119.125396 283 1605ft 71kts
18-Nov-17 15:29 34.226688 -119.144085 283 2379ft 72kts
18-Nov-17 15:30 34.235437 -119.160916 304 3160ft 71kts
18-Nov-17 15:31 34.245496 -119.176924 294 3884ft 71kts
18-Nov-17 15:32 34.255009 -119.195593 293 4627ft 72kts
18-Nov-17 15:33 34.263183 -119.214320 295 5298ft 74kts
18-Nov-17 15:34 34.272106 -119.234337 294 5941ft 79kts
18-Nov-17 15:35 34.281375 -119.257570 295 6054ft 92kts
18-Nov-17 15:36 34.293321 -119.284160 295 6054ft 100kts
18-Nov-17 15:37 34.305696 -119.311821 295 6052ft 102kts
18-Nov-17 15:38 34.318444 -119.340344 295 6052ft 103kts
18-Nov-17 15:39 34.331892 -119.370460 295 6052ft 104kts
18-Nov-17 15:40 34.345337 -119.400598 295 6052ft 104kts
18-Nov-17 15:41 34.358306 -119.429694 295 6052ft 104kts
18-Nov-17 15:42 34.370793 -119.457793 296 6050ft 105kts
18-Nov-17 15:43 34.384510 -119.488626 296 6053ft 108kts
18-Nov-17 15:44 34.398644 -119.520396 296 6052ft 109kts
18-Nov-17 15:45 34.412654 -119.551927 296 6052ft 109kts
18-Nov-17 15:46 34.426568 -119.583276 296 6052ft 109kts
18-Nov-17 15:47 34.439827 -119.613183 296 6052ft 109kts
18-Nov-17 15:48 34.453819 -119.644772 296 6052ft 109kts
18-Nov-17 15:49 34.467577 -119.676020 295 6053ft 109kts
18-Nov-17 15:50 34.476314 -119.695765 295 6053ft 109kts
18-Nov-17 15:51 34.494080 -119.735964 295 6053ft 109kts
18-Nov-17 15:52 34.508203 -119.767941 295 6053ft 109kts
18-Nov-17 15:53 34.512198 -119.801929 273 6053ft 107kts
18-Nov-17 15:54 34.514698 -119.836993 273 6053ft 107kts
18-Nov-17 15:55 34.517287 -119.872516 273 6053ft 107kts
18-Nov-17 15:56 34.519882 -119.907757 273 6053ft 107kts
18-Nov-17 15:57 34.522120 -119.942949 272 6053ft 107kts
18-Nov-17 15:58 34.524262 -119.978282 272 6071ft 106kts
18-Nov-17 15:59 34.526477 -120.013587 272 6071ft 106kts
18-Nov-17 16:00 34.528700 -120.048967 272 6071ft 106kts
18-Nov-17 16:01 34.532916 -120.083552 310 6069ft 109kts
18-Nov-17 16:02 34.554646 -120.107259 304 6071ft 108kts
18-Nov-17 16:03 34.573010 -120.135124 316 6072ft 110kts
18-Nov-17 16:04 34.595386 -120.158998 315 6071ft 110kts
18-Nov-17 16:05 34.617088 -120.182097 319 6071ft 110kts
18-Nov-17 16:06 34.641243 -120.203945 320 6071ft 110kts
18-Nov-17 16:07 34.663818 -120.226820 316 6071ft 109kts
18-Nov-17 16:08 34.686489 -120.250098 316 6071ft 109kts
18-Nov-17 16:09 34.709339 -120.273268 323 6089ft 109kts
18-Nov-17 16:10 34.733717 -120.294563 320 6080ft 110kts
18-Nov-17 16:11 34.758016 -120.315476 320 6080ft 110kts
18-Nov-17 16:12 34.782060 -120.336224 321 6080ft 108kts
18-Nov-17 16:13 34.804341 -120.355458 321 6080ft 108kts
18-Nov-17 16:14 34.826685 -120.374766 321 6080ft 108kts
18-Nov-17 16:15 34.850047 -120.394971 321 6080ft 108kts
18-Nov-17 16:16 34.873522 -120.415290 321 6080ft 108kts
18-Nov-17 16:17 34.896233 -120.434961 321 6080ft 108kts
18-Nov-17 16:18 34.919944 -120.455761 320 6066ft 103kts
18-Nov-17 16:19 34.943768 -120.477523 320 4727ft 108kts
18-Nov-17 16:20 34.966260 -120.498128 320 3475ft 105kts
18-Nov-17 16:21 34.987791 -120.516265 328 2570ft 95kts
18-Nov-17 16:22 35.009709 -120.527668 339 2339ft 92kts
18-Nov-17 16:23 35.031485 -120.537292 327 2043ft 92kts
18-Nov-17 16:24 35.050800 -120.550630 328 1524ft 85kts
18-Nov-17 16:25 35.066055 -120.563654 323 1556ft 85kts
18-Nov-17 16:26 35.079880 -120.582674 305 970ft 68kts
18-Nov-17 16:27 35.089675 -120.600188 305 501ft 60kts
18-Nov-17 16:28 35.097869 -120.615510 305 131ft 53kts
18-Nov-17 16:29 35.102259 -120.623723 304 17ft 8kts
18-Nov-17 16:30 35.103417 -120.624568 40 17ft 2kts
18-Nov-17 16:31 35.103423 -120.624562 38 17ft 0kts

Navigation Log

Ident Type
Flight plan parsing failed, navigation log unavailable